sensor_id;sensor_type;location;lat;lon;timestamp;P1;durP1;ratioP1;P2;durP2;ratioP2
70985;SDS011;58645;43.068;25.610;2023-06-14T00:01:50;9.20;;;6.38;;
70985;SDS011;58645;43.068;25.610;2023-06-14T00:04:17;9.25;;;6.18;;
70985;SDS011;58645;43.068;25.610;2023-06-14T00:06:43;9.10;;;6.45;;
70985;SDS011;58645;43.068;25.610;2023-06-14T00:09:13;10.95;;;7.57;;
70985;SDS011;58645;43.068;25.610;2023-06-14T00:11:40;9.48;;;5.85;;
70985;SDS011;58645;43.068;25.610;2023-06-14T00:14:06;9.88;;;6.00;;
70985;SDS011;58645;43.068;25.610;2023-06-14T00:16:32;9.57;;;6.22;;
70985;SDS011;58645;43.068;25.610;2023-06-14T00:19:00;10.63;;;7.47;;
70985;SDS011;58645;43.068;25.610;2023-06-14T00:21:32;9.75;;;5.97;;
70985;SDS011;58645;43.068;25.610;2023-06-14T00:23:58;11.25;;;7.10;;
70985;SDS011;58645;43.068;25.610;2023-06-14T00:28:51;12.77;;;7.15;;
70985;SDS011;58645;43.068;25.610;2023-06-14T00:31:17;14.80;;;7.53;;
70985;SDS011;58645;43.068;25.610;2023-06-14T00:33:43;11.55;;;7.05;;
70985;SDS011;58645;43.068;25.610;2023-06-14T00:36:09;8.95;;;6.85;;
70985;SDS011;58645;43.068;25.610;2023-06-14T00:38:34;9.50;;;5.53;;
70985;SDS011;58645;43.068;25.610;2023-06-14T00:41:00;10.80;;;7.05;;
70985;SDS011;58645;43.068;25.610;2023-06-14T00:43:26;11.45;;;6.85;;
70985;SDS011;58645;43.068;25.610;2023-06-14T00:45:52;9.77;;;7.07;;
70985;SDS011;58645;43.068;25.610;2023-06-14T00:48:17;11.10;;;7.63;;
70985;SDS011;58645;43.068;25.610;2023-06-14T00:50:44;10.15;;;7.13;;
70985;SDS011;58645;43.068;25.610;2023-06-14T00:53:14;15.10;;;7.32;;
70985;SDS011;58645;43.068;25.610;2023-06-14T00:55:40;10.60;;;6.07;;
70985;SDS011;58645;43.068;25.610;2023-06-14T00:58:06;8.93;;;5.80;;
70985;SDS011;58645;43.068;25.610;2023-06-14T01:00:33;10.13;;;6.50;;
70985;SDS011;58645;43.068;25.610;2023-06-14T01:02:59;11.32;;;7.20;;
70985;SDS011;58645;43.068;25.610;2023-06-14T01:05:26;11.52;;;6.78;;
70985;SDS011;58645;43.068;25.610;2023-06-14T01:13:34;11.90;;;7.80;;
70985;SDS011;58645;43.068;25.610;2023-06-14T01:16:01;11.10;;;7.13;;
70985;SDS011;58645;43.068;25.610;2023-06-14T01:18:28;13.50;;;8.73;;
70985;SDS011;58645;43.068;25.610;2023-06-14T01:20:55;11.75;;;7.00;;
70985;SDS011;58645;43.068;25.610;2023-06-14T01:23:21;11.55;;;7.78;;
70985;SDS011;58645;43.068;25.610;2023-06-14T01:25:48;12.25;;;8.27;;
70985;SDS011;58645;43.068;25.610;2023-06-14T01:28:18;14.70;;;8.13;;
70985;SDS011;58645;43.068;25.610;2023-06-14T01:30:46;12.80;;;8.55;;
70985;SDS011;58645;43.068;25.610;2023-06-14T01:33:19;13.20;;;8.80;;
70985;SDS011;58645;43.068;25.610;2023-06-14T01:35:46;12.73;;;9.27;;
70985;SDS011;58645;43.068;25.610;2023-06-14T01:38:13;13.85;;;8.20;;
70985;SDS011;58645;43.068;25.610;2023-06-14T01:40:42;10.90;;;7.53;;
70985;SDS011;58645;43.068;25.610;2023-06-14T01:43:09;11.70;;;7.75;;
70985;SDS011;58645;43.068;25.610;2023-06-14T01:45:38;12.68;;;7.35;;
70985;SDS011;58645;43.068;25.610;2023-06-14T01:48:05;14.10;;;7.78;;
70985;SDS011;58645;43.068;25.610;2023-06-14T01:50:31;13.32;;;8.45;;
70985;SDS011;58645;43.068;25.610;2023-06-14T01:52:57;12.15;;;7.78;;
70985;SDS011;58645;43.068;25.610;2023-06-14T01:55:23;15.93;;;9.85;;
70985;SDS011;58645;43.068;25.610;2023-06-14T01:57:52;18.80;;;9.15;;
70985;SDS011;58645;43.068;25.610;2023-06-14T02:00:19;13.68;;;8.43;;
70985;SDS011;58645;43.068;25.610;2023-06-14T02:02:46;15.07;;;9.07;;
70985;SDS011;58645;43.068;25.610;2023-06-14T02:05:12;12.32;;;8.02;;
70985;SDS011;58645;43.068;25.610;2023-06-14T02:07:38;12.65;;;8.25;;
70985;SDS011;58645;43.068;25.610;2023-06-14T02:10:04;13.82;;;7.72;;
70985;SDS011;58645;43.068;25.610;2023-06-14T02:12:31;15.68;;;8.60;;
70985;SDS011;58645;43.068;25.610;2023-06-14T02:14:56;13.25;;;8.73;;
70985;SDS011;58645;43.068;25.610;2023-06-14T02:17:23;12.80;;;8.48;;
70985;SDS011;58645;43.068;25.610;2023-06-14T02:19:48;12.63;;;8.45;;
70985;SDS011;58645;43.068;25.610;2023-06-14T02:22:15;14.35;;;8.80;;
70985;SDS011;58645;43.068;25.610;2023-06-14T02:24:41;13.40;;;8.48;;
70985;SDS011;58645;43.068;25.610;2023-06-14T02:27:07;15.02;;;9.25;;
70985;SDS011;58645;43.068;25.610;2023-06-14T02:29:36;15.13;;;9.93;;
70985;SDS011;58645;43.068;25.610;2023-06-14T02:32:02;14.98;;;9.00;;
70985;SDS011;58645;43.068;25.610;2023-06-14T02:34:29;13.77;;;9.07;;
70985;SDS011;58645;43.068;25.610;2023-06-14T02:36:55;13.80;;;8.30;;
70985;SDS011;58645;43.068;25.610;2023-06-14T02:39:21;12.90;;;9.48;;
70985;SDS011;58645;43.068;25.610;2023-06-14T02:41:48;14.70;;;9.27;;
70985;SDS011;58645;43.068;25.610;2023-06-14T02:44:15;14.93;;;9.57;;
70985;SDS011;58645;43.068;25.610;2023-06-14T02:46:44;16.05;;;8.50;;
70985;SDS011;58645;43.068;25.610;2023-06-14T02:51:36;16.05;;;10.23;;
70985;SDS011;58645;43.068;25.610;2023-06-14T02:54:02;15.40;;;8.25;;
70985;SDS011;58645;43.068;25.610;2023-06-14T02:56:28;12.38;;;8.70;;
70985;SDS011;58645;43.068;25.610;2023-06-14T02:58:54;15.20;;;8.82;;
70985;SDS011;58645;43.068;25.610;2023-06-14T03:01:20;17.48;;;10.02;;
70985;SDS011;58645;43.068;25.610;2023-06-14T03:03:46;15.48;;;9.07;;
70985;SDS011;58645;43.068;25.610;2023-06-14T03:06:12;15.30;;;8.85;;
70985;SDS011;58645;43.068;25.610;2023-06-14T03:08:42;15.27;;;8.55;;
70985;SDS011;58645;43.068;25.610;2023-06-14T03:11:08;14.23;;;9.65;;
70985;SDS011;58645;43.068;25.610;2023-06-14T03:13:34;14.68;;;9.52;;
70985;SDS011;58645;43.068;25.610;2023-06-14T03:16:00;15.38;;;9.15;;
70985;SDS011;58645;43.068;25.610;2023-06-14T03:18:30;15.80;;;8.52;;
70985;SDS011;58645;43.068;25.610;2023-06-14T03:21:01;18.52;;;8.38;;
70985;SDS011;58645;43.068;25.610;2023-06-14T03:23:27;14.23;;;9.85;;
70985;SDS011;58645;43.068;25.610;2023-06-14T03:25:53;15.57;;;8.68;;
70985;SDS011;58645;43.068;25.610;2023-06-14T03:28:19;14.93;;;10.32;;
70985;SDS011;58645;43.068;25.610;2023-06-14T03:30:45;16.30;;;9.68;;
70985;SDS011;58645;43.068;25.610;2023-06-14T03:33:11;14.65;;;9.45;;
70985;SDS011;58645;43.068;25.610;2023-06-14T03:35:36;15.02;;;9.38;;
70985;SDS011;58645;43.068;25.610;2023-06-14T03:38:02;14.98;;;10.02;;
70985;SDS011;58645;43.068;25.610;2023-06-14T03:40:28;15.80;;;9.98;;
70985;SDS011;58645;43.068;25.610;2023-06-14T03:42:54;15.57;;;9.18;;
70985;SDS011;58645;43.068;25.610;2023-06-14T03:45:20;15.57;;;9.70;;
70985;SDS011;58645;43.068;25.610;2023-06-14T03:47:46;14.88;;;8.55;;
70985;SDS011;58645;43.068;25.610;2023-06-14T03:50:12;15.95;;;9.45;;
70985;SDS011;58645;43.068;25.610;2023-06-14T03:52:38;13.60;;;9.38;;
70985;SDS011;58645;43.068;25.610;2023-06-14T03:55:05;17.40;;;9.30;;
70985;SDS011;58645;43.068;25.610;2023-06-14T03:57:31;19.02;;;11.50;;
70985;SDS011;58645;43.068;25.610;2023-06-14T03:59:57;23.48;;;12.48;;
70985;SDS011;58645;43.068;25.610;2023-06-14T04:02:23;18.60;;;11.48;;
70985;SDS011;58645;43.068;25.610;2023-06-14T04:04:48;17.58;;;9.82;;
70985;SDS011;58645;43.068;25.610;2023-06-14T04:07:15;14.73;;;9.63;;
70985;SDS011;58645;43.068;25.610;2023-06-14T04:09:44;16.42;;;9.43;;
70985;SDS011;58645;43.068;25.610;2023-06-14T04:12:10;16.50;;;8.85;;
70985;SDS011;58645;43.068;25.610;2023-06-14T04:14:39;14.18;;;9.30;;
70985;SDS011;58645;43.068;25.610;2023-06-14T04:17:05;14.23;;;10.63;;
70985;SDS011;58645;43.068;25.610;2023-06-14T04:19:31;17.30;;;10.68;;
70985;SDS011;58645;43.068;25.610;2023-06-14T04:21:57;14.23;;;9.25;;
70985;SDS011;58645;43.068;25.610;2023-06-14T04:24:26;14.68;;;8.85;;
70985;SDS011;58645;43.068;25.610;2023-06-14T04:26:57;14.80;;;9.27;;
70985;SDS011;58645;43.068;25.610;2023-06-14T04:29:24;13.60;;;9.93;;
70985;SDS011;58645;43.068;25.610;2023-06-14T04:31:51;15.82;;;9.05;;
70985;SDS011;58645;43.068;25.610;2023-06-14T04:34:19;14.02;;;8.88;;
70985;SDS011;58645;43.068;25.610;2023-06-14T04:36:46;14.35;;;8.55;;
70985;SDS011;58645;43.068;25.610;2023-06-14T04:39:24;16.20;;;9.70;;
70985;SDS011;58645;43.068;25.610;2023-06-14T04:41:59;15.02;;;8.50;;
70985;SDS011;58645;43.068;25.610;2023-06-14T04:44:28;16.85;;;9.70;;
70985;SDS011;58645;43.068;25.610;2023-06-14T04:46:57;18.70;;;8.95;;
70985;SDS011;58645;43.068;25.610;2023-06-14T04:49:24;12.82;;;8.80;;
70985;SDS011;58645;43.068;25.610;2023-06-14T04:51:52;16.42;;;9.70;;
70985;SDS011;58645;43.068;25.610;2023-06-14T04:54:24;14.40;;;8.90;;
70985;SDS011;58645;43.068;25.610;2023-06-14T04:57:04;16.35;;;8.95;;
70985;SDS011;58645;43.068;25.610;2023-06-14T04:59:30;13.63;;;8.38;;
70985;SDS011;58645;43.068;25.610;2023-06-14T05:02:26;17.95;;;8.60;;
70985;SDS011;58645;43.068;25.610;2023-06-14T05:05:03;17.17;;;9.43;;
70985;SDS011;58645;43.068;25.610;2023-06-14T05:07:38;15.35;;;9.02;;
70985;SDS011;58645;43.068;25.610;2023-06-14T05:10:07;16.35;;;8.82;;
70985;SDS011;58645;43.068;25.610;2023-06-14T05:12:49;16.67;;;8.63;;
70985;SDS011;58645;43.068;25.610;2023-06-14T05:18:39;17.38;;;9.25;;
70985;SDS011;58645;43.068;25.610;2023-06-14T05:21:05;15.60;;;10.18;;
70985;SDS011;58645;43.068;25.610;2023-06-14T05:23:31;15.43;;;9.18;;
70985;SDS011;58645;43.068;25.610;2023-06-14T05:25:57;12.90;;;8.60;;
70985;SDS011;58645;43.068;25.610;2023-06-14T05:28:23;15.63;;;10.73;;
70985;SDS011;58645;43.068;25.610;2023-06-14T05:30:49;18.45;;;9.65;;
70985;SDS011;58645;43.068;25.610;2023-06-14T05:33:16;15.30;;;9.77;;
70985;SDS011;58645;43.068;25.610;2023-06-14T05:35:48;22.55;;;9.02;;
70985;SDS011;58645;43.068;25.610;2023-06-14T05:38:14;18.05;;;9.32;;
70985;SDS011;58645;43.068;25.610;2023-06-14T05:40:43;15.02;;;9.63;;
70985;SDS011;58645;43.068;25.610;2023-06-14T05:43:29;17.95;;;9.75;;
70985;SDS011;58645;43.068;25.610;2023-06-14T05:46:10;13.88;;;9.77;;
70985;SDS011;58645;43.068;25.610;2023-06-14T05:48:47;18.10;;;9.63;;
70985;SDS011;58645;43.068;25.610;2023-06-14T05:51:17;15.43;;;9.00;;
70985;SDS011;58645;43.068;25.610;2023-06-14T05:55:07;15.30;;;9.57;;
70985;SDS011;58645;43.068;25.610;2023-06-14T05:57:37;16.98;;;8.73;;
70985;SDS011;58645;43.068;25.610;2023-06-14T06:00:07;17.70;;;9.60;;
70985;SDS011;58645;43.068;25.610;2023-06-14T06:02:45;16.33;;;9.23;;
70985;SDS011;58645;43.068;25.610;2023-06-14T06:05:17;14.75;;;8.05;;
70985;SDS011;58645;43.068;25.610;2023-06-14T06:07:46;13.07;;;8.30;;
70985;SDS011;58645;43.068;25.610;2023-06-14T06:11:24;13.38;;;8.02;;
70985;SDS011;58645;43.068;25.610;2023-06-14T06:19:38;12.05;;;7.47;;
70985;SDS011;58645;43.068;25.610;2023-06-14T06:22:05;14.10;;;8.13;;
70985;SDS011;58645;43.068;25.610;2023-06-14T06:28:27;13.70;;;7.20;;
70985;SDS011;58645;43.068;25.610;2023-06-14T06:30:53;13.18;;;8.05;;
70985;SDS011;58645;43.068;25.610;2023-06-14T06:33:19;11.45;;;7.18;;
70985;SDS011;58645;43.068;25.610;2023-06-14T06:35:45;13.38;;;7.30;;
70985;SDS011;58645;43.068;25.610;2023-06-14T06:38:11;11.65;;;6.95;;
70985;SDS011;58645;43.068;25.610;2023-06-14T06:40:36;10.68;;;7.25;;
70985;SDS011;58645;43.068;25.610;2023-06-14T06:43:02;9.00;;;6.57;;
70985;SDS011;58645;43.068;25.610;2023-06-14T06:45:28;10.30;;;7.07;;
70985;SDS011;58645;43.068;25.610;2023-06-14T06:47:54;10.73;;;7.28;;
70985;SDS011;58645;43.068;25.610;2023-06-14T06:50:20;11.07;;;7.35;;
70985;SDS011;58645;43.068;25.610;2023-06-14T06:52:48;8.43;;;6.72;;
70985;SDS011;58645;43.068;25.610;2023-06-14T06:57:40;11.85;;;8.25;;
70985;SDS011;58645;43.068;25.610;2023-06-14T07:00:06;12.68;;;8.73;;
70985;SDS011;58645;43.068;25.610;2023-06-14T07:02:35;12.93;;;9.27;;
70985;SDS011;58645;43.068;25.610;2023-06-14T07:05:02;13.77;;;8.32;;
70985;SDS011;58645;43.068;25.610;2023-06-14T07:09:53;13.63;;;8.88;;
70985;SDS011;58645;43.068;25.610;2023-06-14T07:14:47;15.73;;;11.07;;
70985;SDS011;58645;43.068;25.610;2023-06-14T07:19:42;15.98;;;13.32;;
70985;SDS011;58645;43.068;25.610;2023-06-14T07:22:11;27.55;;;18.23;;
70985;SDS011;58645;43.068;25.610;2023-06-14T07:24:37;26.63;;;18.48;;
70985;SDS011;58645;43.068;25.610;2023-06-14T07:27:06;21.33;;;15.02;;
70985;SDS011;58645;43.068;25.610;2023-06-14T07:29:32;19.25;;;12.90;;
70985;SDS011;58645;43.068;25.610;2023-06-14T07:34:26;15.73;;;10.88;;
70985;SDS011;58645;43.068;25.610;2023-06-14T07:36:55;13.95;;;9.20;;
70985;SDS011;58645;43.068;25.610;2023-06-14T07:41:47;14.02;;;8.25;;
70985;SDS011;58645;43.068;25.610;2023-06-14T07:46:39;13.68;;;10.50;;
70985;SDS011;58645;43.068;25.610;2023-06-14T07:49:05;19.38;;;12.77;;
70985;SDS011;58645;43.068;25.610;2023-06-14T07:51:32;16.73;;;12.65;;
70985;SDS011;58645;43.068;25.610;2023-06-14T07:54:08;16.23;;;12.15;;
70985;SDS011;58645;43.068;25.610;2023-06-14T07:56:34;17.05;;;11.15;;
70985;SDS011;58645;43.068;25.610;2023-06-14T08:01:26;14.18;;;10.27;;
70985;SDS011;58645;43.068;25.610;2023-06-14T08:03:53;13.77;;;8.93;;
70985;SDS011;58645;43.068;25.610;2023-06-14T08:08:44;13.65;;;10.90;;
70985;SDS011;58645;43.068;25.610;2023-06-14T08:11:10;11.75;;;9.23;;
70985;SDS011;58645;43.068;25.610;2023-06-14T08:16:02;12.18;;;9.00;;
70985;SDS011;58645;43.068;25.610;2023-06-14T08:18:30;13.77;;;10.77;;
70985;SDS011;58645;43.068;25.610;2023-06-14T08:23:22;14.23;;;9.90;;
70985;SDS011;58645;43.068;25.610;2023-06-14T08:25:48;11.98;;;10.60;;
70985;SDS011;58645;43.068;25.610;2023-06-14T08:28:14;11.13;;;8.82;;
70985;SDS011;58645;43.068;25.610;2023-06-14T08:30:43;11.75;;;9.43;;
70985;SDS011;58645;43.068;25.610;2023-06-14T08:33:09;10.88;;;8.82;;
70985;SDS011;58645;43.068;25.610;2023-06-14T08:35:38;11.32;;;9.32;;
70985;SDS011;58645;43.068;25.610;2023-06-14T08:38:07;12.32;;;10.05;;
70985;SDS011;58645;43.068;25.610;2023-06-14T08:40:33;10.30;;;8.98;;
70985;SDS011;58645;43.068;25.610;2023-06-14T08:43:02;10.45;;;8.13;;
70985;SDS011;58645;43.068;25.610;2023-06-14T08:45:28;10.55;;;8.70;;
70985;SDS011;58645;43.068;25.610;2023-06-14T08:47:54;10.70;;;8.75;;
70985;SDS011;58645;43.068;25.610;2023-06-14T08:50:23;13.45;;;10.68;;
70985;SDS011;58645;43.068;25.610;2023-06-14T08:52:55;11.07;;;8.38;;
70985;SDS011;58645;43.068;25.610;2023-06-14T08:55:27;9.60;;;8.25;;
70985;SDS011;58645;43.068;25.610;2023-06-14T08:57:55;11.02;;;7.35;;
70985;SDS011;58645;43.068;25.610;2023-06-14T09:00:31;9.98;;;7.43;;
70985;SDS011;58645;43.068;25.610;2023-06-14T09:02:58;11.77;;;8.40;;
70985;SDS011;58645;43.068;25.610;2023-06-14T09:05:27;13.48;;;8.38;;
70985;SDS011;58645;43.068;25.610;2023-06-14T09:07:53;10.88;;;7.65;;
70985;SDS011;58645;43.068;25.610;2023-06-14T09:10:21;11.13;;;8.05;;
70985;SDS011;58645;43.068;25.610;2023-06-14T09:12:48;11.02;;;7.93;;
70985;SDS011;58645;43.068;25.610;2023-06-14T09:15:14;8.93;;;7.10;;
70985;SDS011;58645;43.068;25.610;2023-06-14T09:17:40;10.10;;;6.70;;
70985;SDS011;58645;43.068;25.610;2023-06-14T09:20:07;9.70;;;7.88;;
70985;SDS011;58645;43.068;25.610;2023-06-14T09:22:39;8.57;;;5.35;;
70985;SDS011;58645;43.068;25.610;2023-06-14T09:25:13;6.65;;;4.53;;
70985;SDS011;58645;43.068;25.610;2023-06-14T09:27:46;7.63;;;5.15;;
70985;SDS011;58645;43.068;25.610;2023-06-14T09:30:22;6.68;;;5.25;;
70985;SDS011;58645;43.068;25.610;2023-06-14T09:32:51;5.80;;;5.10;;
70985;SDS011;58645;43.068;25.610;2023-06-14T09:35:17;9.57;;;4.90;;
70985;SDS011;58645;43.068;25.610;2023-06-14T09:37:43;8.02;;;6.35;;
70985;SDS011;58645;43.068;25.610;2023-06-14T09:40:12;10.15;;;6.50;;
70985;SDS011;58645;43.068;25.610;2023-06-14T09:42:38;7.45;;;5.40;;
70985;SDS011;58645;43.068;25.610;2023-06-14T09:45:06;7.70;;;5.70;;
70985;SDS011;58645;43.068;25.610;2023-06-14T09:47:33;10.82;;;5.97;;
70985;SDS011;58645;43.068;25.610;2023-06-14T09:49:59;8.10;;;4.90;;
70985;SDS011;58645;43.068;25.610;2023-06-14T09:52:25;8.15;;;5.15;;
70985;SDS011;58645;43.068;25.610;2023-06-14T09:54:53;6.45;;;5.00;;
70985;SDS011;58645;43.068;25.610;2023-06-14T09:57:21;8.00;;;5.00;;
70985;SDS011;58645;43.068;25.610;2023-06-14T09:59:48;8.80;;;5.18;;
70985;SDS011;58645;43.068;25.610;2023-06-14T10:02:25;5.57;;;4.30;;
70985;SDS011;58645;43.068;25.610;2023-06-14T10:05:04;4.15;;;2.70;;
70985;SDS011;58645;43.068;25.610;2023-06-14T10:07:33;6.55;;;3.42;;
70985;SDS011;58645;43.068;25.610;2023-06-14T10:10:13;4.55;;;3.95;;
70985;SDS011;58645;43.068;25.610;2023-06-14T10:12:39;4.13;;;3.15;;
70985;SDS011;58645;43.068;25.610;2023-06-14T10:15:07;5.40;;;3.90;;
70985;SDS011;58645;43.068;25.610;2023-06-14T10:23:21;5.32;;;4.35;;
70985;SDS011;58645;43.068;25.610;2023-06-14T10:25:50;5.97;;;3.78;;
70985;SDS011;58645;43.068;25.610;2023-06-14T10:28:24;4.85;;;3.75;;
70985;SDS011;58645;43.068;25.610;2023-06-14T10:33:39;8.02;;;3.97;;
70985;SDS011;58645;43.068;25.610;2023-06-14T10:38:58;5.25;;;4.00;;
70985;SDS011;58645;43.068;25.610;2023-06-14T10:41:28;4.32;;;3.83;;
70985;SDS011;58645;43.068;25.610;2023-06-14T10:46:39;5.20;;;3.30;;
70985;SDS011;58645;43.068;25.610;2023-06-14T10:49:05;5.80;;;3.10;;
70985;SDS011;58645;43.068;25.610;2023-06-14T10:51:38;4.20;;;3.72;;
70985;SDS011;58645;43.068;25.610;2023-06-14T10:54:11;5.30;;;3.45;;
70985;SDS011;58645;43.068;25.610;2023-06-14T10:56:52;4.38;;;3.80;;
70985;SDS011;58645;43.068;25.610;2023-06-14T10:59:19;5.60;;;3.63;;
70985;SDS011;58645;43.068;25.610;2023-06-14T11:04:14;6.35;;;3.40;;
70985;SDS011;58645;43.068;25.610;2023-06-14T11:09:24;5.63;;;3.20;;
70985;SDS011;58645;43.068;25.610;2023-06-14T11:12:01;7.18;;;3.53;;
70985;SDS011;58645;43.068;25.610;2023-06-14T11:14:31;4.78;;;3.03;;
70985;SDS011;58645;43.068;25.610;2023-06-14T11:16:56;4.30;;;3.50;;
70985;SDS011;58645;43.068;25.610;2023-06-14T11:19:22;4.43;;;3.40;;
70985;SDS011;58645;43.068;25.610;2023-06-14T11:21:48;4.70;;;3.45;;
70985;SDS011;58645;43.068;25.610;2023-06-14T11:24:14;3.83;;;2.95;;
70985;SDS011;58645;43.068;25.610;2023-06-14T11:26:41;6.13;;;3.17;;
70985;SDS011;58645;43.068;25.610;2023-06-14T11:29:07;4.32;;;3.30;;
70985;SDS011;58645;43.068;25.610;2023-06-14T11:31:36;6.40;;;3.35;;
70985;SDS011;58645;43.068;25.610;2023-06-14T11:34:02;6.28;;;2.95;;
70985;SDS011;58645;43.068;25.610;2023-06-14T11:36:29;5.35;;;3.65;;
70985;SDS011;58645;43.068;25.610;2023-06-14T11:41:25;4.80;;;3.28;;
70985;SDS011;58645;43.068;25.610;2023-06-14T11:43:57;5.07;;;2.85;;
70985;SDS011;58645;43.068;25.610;2023-06-14T11:46:23;6.97;;;2.80;;
70985;SDS011;58645;43.068;25.610;2023-06-14T11:48:51;5.18;;;2.75;;
70985;SDS011;58645;43.068;25.610;2023-06-14T11:51:17;6.22;;;3.60;;
70985;SDS011;58645;43.068;25.610;2023-06-14T11:53:44;4.82;;;2.90;;
70985;SDS011;58645;43.068;25.610;2023-06-14T11:56:10;5.38;;;3.08;;
70985;SDS011;58645;43.068;25.610;2023-06-14T11:58:36;4.25;;;3.40;;
70985;SDS011;58645;43.068;25.610;2023-06-14T12:01:02;4.72;;;3.30;;
70985;SDS011;58645;43.068;25.610;2023-06-14T12:03:29;4.22;;;3.35;;
70985;SDS011;58645;43.068;25.610;2023-06-14T12:06:07;5.85;;;3.00;;
70985;SDS011;58645;43.068;25.610;2023-06-14T12:08:37;4.65;;;3.13;;
70985;SDS011;58645;43.068;25.610;2023-06-14T12:11:07;5.38;;;3.30;;
70985;SDS011;58645;43.068;25.610;2023-06-14T12:13:40;3.97;;;2.90;;
70985;SDS011;58645;43.068;25.610;2023-06-14T12:16:10;5.28;;;3.20;;
70985;SDS011;58645;43.068;25.610;2023-06-14T12:18:37;5.38;;;3.55;;
70985;SDS011;58645;43.068;25.610;2023-06-14T12:21:05;4.97;;;2.90;;
70985;SDS011;58645;43.068;25.610;2023-06-14T12:23:47;4.30;;;2.90;;
70985;SDS011;58645;43.068;25.610;2023-06-14T12:26:18;4.53;;;2.88;;
70985;SDS011;58645;43.068;25.610;2023-06-14T12:28:45;5.28;;;3.20;;
70985;SDS011;58645;43.068;25.610;2023-06-14T12:31:12;3.63;;;3.00;;
70985;SDS011;58645;43.068;25.610;2023-06-14T12:33:39;5.28;;;3.28;;
70985;SDS011;58645;43.068;25.610;2023-06-14T12:36:06;3.60;;;2.63;;
70985;SDS011;58645;43.068;25.610;2023-06-14T12:38:33;3.72;;;2.53;;
70985;SDS011;58645;43.068;25.610;2023-06-14T12:40:59;6.57;;;2.58;;
70985;SDS011;58645;43.068;25.610;2023-06-14T12:43:25;3.20;;;2.70;;
70985;SDS011;58645;43.068;25.610;2023-06-14T12:45:51;3.60;;;3.25;;
70985;SDS011;58645;43.068;25.610;2023-06-14T12:48:17;4.05;;;2.53;;
70985;SDS011;58645;43.068;25.610;2023-06-14T12:50:43;4.43;;;2.80;;
70985;SDS011;58645;43.068;25.610;2023-06-14T12:53:08;5.15;;;2.58;;
70985;SDS011;58645;43.068;25.610;2023-06-14T12:55:34;4.15;;;2.58;;
70985;SDS011;58645;43.068;25.610;2023-06-14T12:58:00;3.17;;;2.60;;
70985;SDS011;58645;43.068;25.610;2023-06-14T13:00:26;5.32;;;3.40;;
70985;SDS011;58645;43.068;25.610;2023-06-14T13:02:52;5.28;;;3.15;;
70985;SDS011;58645;43.068;25.610;2023-06-14T13:05:18;4.45;;;2.50;;
70985;SDS011;58645;43.068;25.610;2023-06-14T13:07:44;3.50;;;2.80;;
70985;SDS011;58645;43.068;25.610;2023-06-14T13:10:10;2.92;;;2.55;;
70985;SDS011;58645;43.068;25.610;2023-06-14T13:12:35;4.00;;;2.60;;
70985;SDS011;58645;43.068;25.610;2023-06-14T13:15:01;4.25;;;2.55;;
70985;SDS011;58645;43.068;25.610;2023-06-14T13:17:27;2.65;;;2.05;;
70985;SDS011;58645;43.068;25.610;2023-06-14T13:19:53;3.00;;;2.45;;
70985;SDS011;58645;43.068;25.610;2023-06-14T13:22:19;4.85;;;2.17;;
70985;SDS011;58645;43.068;25.610;2023-06-14T13:24:45;3.50;;;2.95;;
70985;SDS011;58645;43.068;25.610;2023-06-14T13:27:10;3.85;;;2.30;;
70985;SDS011;58645;43.068;25.610;2023-06-14T13:29:39;2.97;;;2.75;;
70985;SDS011;58645;43.068;25.610;2023-06-14T13:32:05;3.78;;;2.80;;
70985;SDS011;58645;43.068;25.610;2023-06-14T13:34:31;7.15;;;2.97;;
70985;SDS011;58645;43.068;25.610;2023-06-14T13:36:57;4.93;;;2.47;;
70985;SDS011;58645;43.068;25.610;2023-06-14T13:39:24;5.40;;;3.15;;
70985;SDS011;58645;43.068;25.610;2023-06-14T13:41:50;4.70;;;3.08;;
70985;SDS011;58645;43.068;25.610;2023-06-14T13:44:16;5.30;;;2.72;;
70985;SDS011;58645;43.068;25.610;2023-06-14T13:46:44;2.90;;;2.33;;
70985;SDS011;58645;43.068;25.610;2023-06-14T13:49:10;3.00;;;2.78;;
70985;SDS011;58645;43.068;25.610;2023-06-14T13:51:37;4.82;;;2.85;;
70985;SDS011;58645;43.068;25.610;2023-06-14T13:54:03;4.07;;;2.28;;
70985;SDS011;58645;43.068;25.610;2023-06-14T13:56:29;3.20;;;2.85;;
70985;SDS011;58645;43.068;25.610;2023-06-14T13:58:55;4.53;;;3.13;;
70985;SDS011;58645;43.068;25.610;2023-06-14T14:01:21;4.00;;;3.10;;
70985;SDS011;58645;43.068;25.610;2023-06-14T14:03:48;4.00;;;2.92;;
70985;SDS011;58645;43.068;25.610;2023-06-14T14:06:14;4.07;;;2.65;;
70985;SDS011;58645;43.068;25.610;2023-06-14T14:08:41;3.22;;;2.42;;
70985;SDS011;58645;43.068;25.610;2023-06-14T14:11:07;4.57;;;2.22;;
70985;SDS011;58645;43.068;25.610;2023-06-14T14:13:34;3.83;;;2.80;;
70985;SDS011;58645;43.068;25.610;2023-06-14T14:16:01;3.55;;;2.45;;
70985;SDS011;58645;43.068;25.610;2023-06-14T14:18:28;3.15;;;2.30;;
70985;SDS011;58645;43.068;25.610;2023-06-14T14:20:54;3.63;;;2.40;;
70985;SDS011;58645;43.068;25.610;2023-06-14T14:23:21;4.88;;;3.22;;
70985;SDS011;58645;43.068;25.610;2023-06-14T14:25:47;3.30;;;2.80;;
70985;SDS011;58645;43.068;25.610;2023-06-14T14:28:13;4.13;;;2.45;;
70985;SDS011;58645;43.068;25.610;2023-06-14T14:30:41;4.00;;;2.92;;
70985;SDS011;58645;43.068;25.610;2023-06-14T14:33:07;3.28;;;2.28;;
70985;SDS011;58645;43.068;25.610;2023-06-14T14:35:33;4.00;;;2.70;;
70985;SDS011;58645;43.068;25.610;2023-06-14T14:37:59;4.50;;;3.15;;
70985;SDS011;58645;43.068;25.610;2023-06-14T14:40:25;3.92;;;3.08;;
70985;SDS011;58645;43.068;25.610;2023-06-14T14:42:51;3.92;;;2.90;;
70985;SDS011;58645;43.068;25.610;2023-06-14T14:45:17;4.55;;;3.22;;
70985;SDS011;58645;43.068;25.610;2023-06-14T14:47:43;3.08;;;2.40;;
70985;SDS011;58645;43.068;25.610;2023-06-14T14:50:09;6.47;;;3.55;;
70985;SDS011;58645;43.068;25.610;2023-06-14T14:52:35;3.10;;;2.70;;
70985;SDS011;58645;43.068;25.610;2023-06-14T14:55:01;5.03;;;2.58;;
70985;SDS011;58645;43.068;25.610;2023-06-14T14:57:27;6.45;;;3.30;;
70985;SDS011;58645;43.068;25.610;2023-06-14T14:59:55;5.72;;;3.80;;
70985;SDS011;58645;43.068;25.610;2023-06-14T15:02:20;4.13;;;2.63;;
70985;SDS011;58645;43.068;25.610;2023-06-14T15:04:47;3.78;;;2.53;;
70985;SDS011;58645;43.068;25.610;2023-06-14T15:07:13;5.65;;;3.30;;
70985;SDS011;58645;43.068;25.610;2023-06-14T15:09:39;3.60;;;3.30;;
70985;SDS011;58645;43.068;25.610;2023-06-14T15:12:05;4.55;;;2.97;;
70985;SDS011;58645;43.068;25.610;2023-06-14T15:14:32;3.13;;;2.38;;
70985;SDS011;58645;43.068;25.610;2023-06-14T15:16:58;3.75;;;2.90;;
70985;SDS011;58645;43.068;25.610;2023-06-14T15:19:26;4.35;;;2.80;;
70985;SDS011;58645;43.068;25.610;2023-06-14T15:21:52;3.92;;;3.13;;
70985;SDS011;58645;43.068;25.610;2023-06-14T15:24:18;4.20;;;3.10;;
70985;SDS011;58645;43.068;25.610;2023-06-14T15:26:43;5.97;;;3.20;;
70985;SDS011;58645;43.068;25.610;2023-06-14T15:31:35;3.55;;;2.60;;
70985;SDS011;58645;43.068;25.610;2023-06-14T15:34:00;4.80;;;3.22;;
70985;SDS011;58645;43.068;25.610;2023-06-14T15:36:26;4.55;;;3.13;;
70985;SDS011;58645;43.068;25.610;2023-06-14T15:38:52;4.32;;;3.05;;
70985;SDS011;58645;43.068;25.610;2023-06-14T15:41:18;3.30;;;2.63;;
70985;SDS011;58645;43.068;25.610;2023-06-14T15:46:10;3.80;;;2.75;;
70985;SDS011;58645;43.068;25.610;2023-06-14T15:51:01;5.18;;;3.17;;